Nxstage Medical Inc (NXTM) Latest Bloomsberg Price


Mffais Ranking #2386 Overall / #18 Industry
Industry: Medical Equipment

Number of Companies: 111 (Ranking #1517 Overall/#11 Industry)
Inflow: $ 53,079 (K) (Ranking #1288 Overall/#9 Industry)
Outflow: $ -120,979 (K)
Mffais Flow: $ -67,900 (K) (Ranking #2386 Overall/#18 Industry)


Receive a FREE weekly executive review of stocks moving into the top 10, taking the top industy spot or moving up within their industry. Sent directly to your Inbox every Saturday. Sign up today and get last week's review immediately sent to you.

We value and respect your privacy. Please read our Terms and Conditions which states our firm commitment to your privacy. Your email address will not be shared with a third party, nor will it be sold or used for purposes other than subscription for the weekly review.

Owner CPOR Shares Action Qty Chg Invested (K) Total Current Value (K)
Pennant Capital Management Llc 2016-09-30 397,365 New Holding 397,365 $ 8,785 $ 8,785
Portolan Capital Management Llc 2016-09-30 532,242 Added More 316,432 $ 6,996 $ 11,767
Perceptive Advisors Llc 2016-09-30 1,669,703 Added More 287,293 $ 6,352 $ 36,917
Pura Vida Investments Llc 2016-09-30 462,100 Added More 262,100 $ 5,795 $ 10,217
Pier Capital Llc 2016-09-30 223,351 New Holding 223,351 $ 4,938 $ 4,938
Columbus Circle Investors 2016-09-30 370,022 Added More 159,355 $ 3,523 $ 8,181
Driehaus Capital Management Llc 2016-09-30 92,703 New Holding 92,703 $ 2,049 $ 2,049
Chartwell Investment Partners Llc 2016-09-30 406,005 Added More 90,485 $ 2,000 $ 8,976
Panagora Asset Management Inc 2016-09-30 76,560 Added More 65,189 $ 1,441 $ 1,692
Nicholas Investment Partners Lp 2016-09-30 147,578 Added More 59,796 $ 1,322 $ 3,262
Sg Americas Securities Llc 2016-09-30 46,549 New Holding 46,549 $ 1,029 $ 1,029
Convergence Investment Partners Llc 2016-09-30 65,215 Added More 44,545 $ 984 $ 1,441
Essex Investment Management Co Llc 2016-09-30 86,727 Added More 35,268 $ 779 $ 1,917
Algert Global Llc 2016-09-30 25,514 New Holding 25,514 $ 564 $ 564
Springbok Capital Management Llc 2016-09-30 25,000 New Holding 25,000 $ 552 $ 552
Gsa Capital Partners Llp 2016-09-30 65,236 Added More 24,810 $ 548 $ 1,442
Vident Investment Advisory Llc 2016-09-30 20,435 New Holding 20,435 $ 451 $ 451
Sit Investment Associates Inc 2016-09-30 17,600 New Holding 17,600 $ 389 $ 389
Trexquant Investment Lp 2016-09-30 17,455 New Holding 17,455 $ 385 $ 385
Martingale Asset Management L P 2016-09-30 16,800 New Holding 16,800 $ 371 $ 371
Bessemer Group Inc 2016-09-30 16,800 New Holding 16,800 $ 371 $ 371
Mackenzie Financial Corp 2016-09-30 55,370 Added More 16,401 $ 362 $ 1,224
Capital Fund Management S A 2016-09-30 15,100 New Holding 15,100 $ 333 $ 333
Emerald Acquisition Ltd 2016-09-30 15,054 New Holding 15,054 $ 332 $ 332
Sta Wealth Management Llc 2016-09-30 13,774 New Holding 13,774 $ 304 $ 304
Airain Ltd 2016-09-30 12,156 New Holding 12,156 $ 268 $ 268
New York State Common Retirement Fund 2016-09-30 92,133 Added More 10,252 $ 226 $ 2,037
Squarepoint Ops Llc 2016-09-30 9,194 New Holding 9,194 $ 203 $ 203
Pacad Investment Ltd 2016-09-30 14,200 Added More 9,100 $ 201 $ 313
First Mercantile Trust Co 2016-09-30 8,961 New Holding 8,961 $ 198 $ 198
Guggenheim Capital Llc 2016-09-30 8,164 New Holding 8,164 $ 180 $ 180
Fortaleza Asset Management Inc 2016-09-30 7,860 New Holding 7,860 $ 173 $ 173
Blackrock Inc 2016-09-30 12,715 Added More 6,416 $ 141 $ 281
Cutler Group Lp 2016-09-30 13,024 Added More 5,856 $ 129 $ 287
Blackrock Investment Management Llc 2016-09-30 238,833 Added More 2,253 $ 49 $ 5,280
Group One Trading L P 2016-09-30 2,350 Added More 1,975 $ 43 $ 51
Acrospire Investment Management Llc 2016-09-30 6,578 Added More 1,900 $ 42 $ 145
Blackrock Japan Co Ltd 2016-09-30 2,073 Added More 1,883 $ 41 $ 45
Legal General Group Plc 2016-09-30 16,329 Added More 1,809 $ 39 $ 361
Oracle Investment Management Inc 2016-09-30 2,671,936 Added More 1,400 $ 30 $ 59,076
Rhumbline Advisers 2016-09-30 71,591 Added More 1,385 $ 30 $ 1,582
California State Teachers Retirement System 2016-09-30 134,815 Added More 1,300 $ 28 $ 2,980
Clinton Group Inc 2016-09-30 40,228 Added More 1,114 $ 24 $ 889
Creative Planning 2016-09-30 974 New Holding 974 $ 21 $ 21
Thompson Davis Co Inc 2016-09-30 750 New Holding 750 $ 16 $ 16
Whitnell Co 2016-09-30 500 New Holding 500 $ 11 $ 11
Zurcher Kantonalbank Zurich Cantonalbank 2016-09-30 1,478 Added More 273 $ 6 $ 32
American International Group Inc 2016-09-30 36,711 Added More 56 $ 1 $ 811
Globeflex Capital L P 2016-09-30 53,000 No Change 0 $ 0 $ 1,171
Deere Co 2016-09-30 20,605 No Change 0 $ 0 $ 455
Nisa Investment Advisors Llc 2016-09-30 16,700 No Change 0 $ 0 $ 369
Nationwide Fund Advisors 2016-09-30 41,692 No Change 0 $ 0 $ 921
Delta Lloyd Nv 2016-09-30 175,000 No Change 0 $ 0 $ 3,869
Rathbone Brothers Plc 2016-09-30 10,200 No Change 0 $ 0 $ 225
First Republic Investment Management Inc 2016-09-30 11,697 No Change 0 $ 0 $ 258
Barnett Company Inc 2016-09-30 500 No Change 0 $ 0 $ 11
State Of New Jersey Common Pension Fund D 2016-09-30 76,700 No Change 0 $ 0 $ 1,695
Qs Investors Llc 2016-09-30 137,622 No Change 0 $ 0 $ 3,042
Rhenman Partners Asset Management Ab 2016-09-30 145,300 No Change 0 $ 0 $ 3,212
Birchview Capital Lp 2016-09-30 28,200 No Change 0 $ 0 $ 623
Wespac Advisors Socal Llc 2016-09-30 750 No Change 0 $ 0 $ 16
Cable Hill Partners Llc 2016-09-30 200 No Change 0 $ 0 $ 4
Advisor Group Inc 2016-09-30 100 No Change 0 $ 0 $ 2
Ifp Advisors Inc 2016-09-30 0 Sold All -100 $ -2 $ 0
Pnc Financial Services Group Inc 2016-09-30 0 Sold All -383 $ -8 $ 0
Whittier Trust Co 2016-09-30 2,250 Sold Some -500 $ -11 $ 49
Invictus Rg 2016-09-30 0 Sold All -614 $ -13 $ 0
Teachers Advisors Inc 2016-09-30 111,925 Sold Some -730 $ -16 $ 2,474
Johnson Financial Group Inc 2016-09-30 0 Sold All -1,424 $ -31 $ 0
Northern Trust Corp 2016-09-30 823,968 Sold Some -1,495 $ -33 $ 18,217
Sterling Capital Management Llc 2016-09-30 75,119 Sold Some -2,729 $ -60 $ 1,660
Swiss National Bank 2016-09-30 103,300 Sold Some -3,500 $ -77 $ 2,283
First Light Asset Management Llc 2016-09-30 250,386 Sold Some -3,727 $ -82 $ 5,536
Us Bancorp De 2016-09-30 3,993 Sold Some -3,890 $ -86 $ 88
Outfitter Advisors Ltd 2016-09-30 54,450 Sold Some -4,650 $ -102 $ 1,203
Cupps Capital Management Llc 2016-09-30 91,711 Sold Some -5,024 $ -111 $ 2,027
Ridgeworth Capital Management Llc 2016-09-30 32,839 Sold Some -5,657 $ -125 $ 726
Granite Point Capital Management L P 2016-09-30 60,250 Sold Some -6,700 $ -148 $ 1,332
Teacher Retirement System Of Texas 2016-09-30 0 Sold All -8,958 $ -198 $ 0
Dynamic Technology Lab Private Ltd 2016-09-30 0 Sold All -9,490 $ -209 $ 0
Continental Advisors Llc 2016-09-30 109,564 Sold Some -10,000 $ -221 $ 2,422
Fox Run Management L L C 2016-09-30 0 Sold All -11,300 $ -249 $ 0
Parametric Portfolio Associates Llc 2016-09-30 32,753 Sold Some -13,140 $ -290 $ 724
Tudor Investment Corp Et Al 2016-09-30 0 Sold All -14,241 $ -314 $ 0
Weiss Multi-Strategy Advisers Llc 2016-09-30 124,000 Sold Some -14,510 $ -320 $ 2,741
Quadrature Capital Ltd 2016-09-30 0 Sold All -14,932 $ -330 $ 0
Gotham Asset Management Llc 2016-09-30 0 Sold All -18,781 $ -415 $ 0
Peak6 Investments L P 2016-09-30 0 Sold All -21,400 $ -473 $ 0
Menta Capital Llc 2016-09-30 0 Sold All -37,180 $ -822 $ 0
Kopp Investment Advisors Llc 2016-09-30 124,997 Sold Some -37,840 $ -836 $ 2,763
Tiverton Asset Management Llc 2016-09-30 147,656 Sold Some -37,999 $ -840 $ 3,264
Bogle Investment Management L P De 2016-09-30 0 Sold All -60,206 $ -1,331 $ 0
A R T Advisors Llc 2016-09-30 0 Sold All -62,501 $ -1,381 $ 0
Atika Capital Management Llc 2016-09-30 0 Sold All -71,000 $ -1,569 $ 0
Employees Retirement System Of Texas 2016-09-30 122,000 Sold Some -76,000 $ -1,680 $ 2,697
Broadview Advisors Llc 2016-09-30 502,606 Sold Some -99,700 $ -2,204 $ 11,112
Altrinsic Global Advisors Llc 2016-09-30 526,300 Sold Some -100,000 $ -2,211 $ 11,636
Osterweis Capital Management Inc 2016-09-30 0 Sold All -102,632 $ -2,269 $ 0
Dafna Capital Management Llc 2016-09-30 238,509 Sold Some -118,000 $ -2,608 $ 5,273
Gilder Gagnon Howe Co Llc 2016-09-30 5,890,709 Sold Some -127,367 $ -2,816 $ 130,243
William Blair Investment Management Llc 2016-09-30 451,031 Sold Some -140,267 $ -3,101 $ 9,972
Lord Abbett Co Llc 2016-09-30 117,824 Sold Some -141,643 $ -3,131 $ 2,605
Nuveen Asset Management Llc 2016-09-30 290,470 Sold Some -163,213 $ -3,608 $ 6,422
Marshall Wace Llp 2016-09-30 0 Sold All -205,492 $ -4,543 $ 0
Cortina Asset Management Llc 2016-09-30 1,482,206 Sold Some -234,988 $ -5,195 $ 32,771
Polar Capital Llp 2016-09-30 100,000 Sold Some -275,194 $ -6,084 $ 2,211
Blair William Co Il 2016-09-30 857,861 Sold Some -328,381 $ -7,260 $ 18,967
Deerfield Management Co 2016-09-30 4,099,175 Sold Some -406,293 $ -8,983 $ 90,632
Sectoral Asset Management Inc 2016-09-30 1,199,869 Sold Some -628,713 $ -13,900 $ 26,529
Consonance Capital Management Lp 2016-09-30 0 Sold All -835,134 $ -18,464 $ 0
Rs Investment Management Co Llc 2016-06-30 2,154,390 Sold Some -1,024,017 $ -22,200 $ 46,707